Time;durP1;ratioP1;P1;durP2;ratioP2;P2;SDS_P1;SDS_P2;PMS_P1;PMS_P2;Temp;Humidity;BMP_temperature;BMP_pressure;BME280_temperature;BME280_humidity;BME280_pressure;Samples;Min_cycle;Max_cycle;Signal;HPM_P1;HPM_P2
2022/04/16 00:03:26;;;;;;;19.85;17.25;;;;;;;5.88;88.82;101295.78;10214299;29;20047;-69
2022/04/16 00:08:30;;;;;;;17.70;15.95;;;;;;;5.71;89.00;101281.72;10214287;29;20051;-69
2022/04/16 00:13:32;;;;;;;19.65;16.88;;;;;;;5.79;88.16;101293.09;10213898;29;20095;-69
2022/04/16 00:18:34;;;;;;;17.23;15.63;;;;;;;5.73;88.30;101291.31;10214215;29;20048;-70
2022/04/16 00:23:37;;;;;;;19.85;16.77;;;;;;;5.71;88.88;101284.34;10214318;29;20451;-70
2022/04/16 00:28:39;;;;;;;16.55;15.05;;;;;;;5.68;88.40;101281.72;10196918;29;20048;-70
2022/04/16 00:33:41;;;;;;;18.50;16.55;;;;;;;5.56;88.24;101290.31;10213344;29;20050;-70
2022/04/16 00:38:43;;;;;;;17.00;15.20;;;;;;;5.57;88.05;101279.00;10213425;29;20067;-70
2022/04/16 00:43:44;;;;;;;16.33;14.82;;;;;;;5.51;88.06;101284.19;10196442;29;20055;-70
2022/04/16 00:48:46;;;;;;;16.45;14.27;;;;;;;5.61;88.11;101293.81;10213437;29;20055;-70
2022/04/16 00:53:48;;;;;;;15.30;13.80;;;;;;;5.60;87.79;101302.53;10213775;29;20099;-70
2022/04/16 00:58:50;;;;;;;12.35;11.30;;;;;;;5.46;86.49;101305.00;10196336;29;20080;-69
2022/04/16 01:03:51;;;;;;;11.18;8.88;;;;;;;5.29;85.71;101309.19;10215700;29;20077;-69
2022/04/16 01:08:54;;;;;;;9.27;8.48;;;;;;;5.29;85.45;101315.25;10221354;29;20055;-69
2022/04/16 01:13:56;;;;;;;9.18;8.27;;;;;;;5.23;85.13;101319.56;10220997;29;20099;-69
2022/04/16 01:18:58;;;;;;;9.02;8.13;;;;;;;5.17;86.30;101333.38;10204058;29;20047;-69
2022/04/16 01:23:59;;;;;;;7.78;6.28;;;;;;;4.81;85.55;101346.84;10220774;29;20174;-70
2022/04/16 01:29:02;;;;;;;7.57;6.63;;;;;;;4.96;85.54;101354.00;10220879;29;20054;-70
2022/04/16 01:34:04;;;;;;;6.10;5.50;;;;;;;4.84;84.33;101357.31;10206418;23;20040;-72
2022/04/16 01:39:07;;;;;;;5.63;5.13;;;;;;;4.77;83.27;101358.94;10221202;29;20067;-71
2022/04/16 01:44:09;;;;;;;4.95;4.45;;;;;;;4.90;83.00;101361.72;10221976;29;20040;-71
2022/04/16 01:49:10;;;;;;;5.60;5.10;;;;;;;4.75;83.02;101365.00;10221359;29;20048;-71
2022/04/16 01:54:12;;;;;;;4.85;4.38;;;;;;;4.74;82.92;101373.69;10221953;29;20055;-71
2022/04/16 01:59:13;;;;;;;4.20;3.80;;;;;;;4.65;82.53;101377.03;10221672;29;20043;-71
2022/04/16 02:04:15;;;;;;;4.70;3.47;;;;;;;4.53;82.37;101372.53;10220965;29;20454;-71
2022/04/16 02:09:17;;;;;;;3.35;3.03;;;;;;;4.45;82.50;101368.94;10220638;29;20417;-71
2022/04/16 02:14:21;;;;;;;2.47;1.77;;;;;;;4.12;78.90;101371.91;10219977;29;20390;-71
2022/04/16 02:19:23;;;;;;;3.75;1.67;;;;;;;3.95;77.22;101386.38;10220243;29;20052;-71
2022/04/16 02:24:25;;;;;;;2.92;1.42;;;;;;;3.87;77.54;101386.22;10218914;29;20103;-72
2022/04/16 02:29:26;;;;;;;2.92;1.65;;;;;;;3.89;76.58;101379.31;10221775;29;20047;-72
2022/04/16 02:34:29;;;;;;;2.92;1.33;;;;;;;3.99;75.51;101393.38;10220208;29;20055;-72
2022/04/16 02:39:30;;;;;;;3.15;1.20;;;;;;;4.04;75.71;101389.13;10218668;29;20428;-71
2022/04/16 02:49:52;;;;;;;2.17;1.88;;;;;;;3.94;75.57;101397.59;10219531;29;20039;-71
2022/04/16 02:54:53;;;;;;;2.60;1.40;;;;;;;3.73;75.50;101401.59;10218676;29;20060;-71
2022/04/16 02:59:55;;;;;;;2.65;1.50;;;;;;;3.76;74.92;101409.47;10219111;29;20043;-71
2022/04/16 03:04:56;;;;;;;1.95;1.40;;;;;;;3.81;74.90;101404.34;10218882;29;20514;-72
2022/04/16 03:09:58;;;;;;;2.53;1.60;;;;;;;3.73;76.10;101408.53;10219359;29;20095;-70
2022/04/16 03:20:23;;;;;;;2.60;1.30;;;;;;;3.78;75.22;101427.69;10218499;29;20047;-72
2022/04/16 03:25:27;;;;;;;2.97;1.40;;;;;;;3.51;76.70;101444.53;10217978;29;20043;-71
2022/04/16 03:30:29;;;;;;;3.05;1.20;;;;;;;3.57;77.53;101459.34;10217042;29;20044;-71
2022/04/16 03:35:31;;;;;;;4.10;1.48;;;;;;;3.26;75.85;101457.88;10217345;29;20075;-71
2022/04/16 03:40:32;;;;;;;2.63;1.33;;;;;;;3.32;75.35;101462.31;10217758;29;20051;-72
2022/04/16 03:45:36;;;;;;;2.85;1.40;;;;;;;3.28;75.37;101466.59;10217997;29;20044;-71
2022/04/16 03:50:38;;;;;;;2.63;1.40;;;;;;;3.16;75.15;101479.31;10217704;29;20549;-72
2022/04/16 04:01:19;;;;;;;4.47;1.33;;;;;;;2.91;76.46;101477.88;10174454;29;20077;-71
2022/04/16 04:06:21;;;;;;;2.28;1.30;;;;;;;2.92;76.31;101480.53;10159029;29;20068;-71
2022/04/16 04:11:23;;;;;;;2.28;1.27;;;;;;;2.90;75.45;101483.94;10174395;29;20160;-70
2022/04/16 04:16:24;;;;;;;3.35;1.48;;;;;;;2.81;75.96;101483.72;10174354;29;20068;-71
2022/04/16 04:21:26;;;;;;;4.68;1.80;;;;;;;2.82;75.75;101496.72;10156966;29;20167;-70
2022/04/16 04:26:28;;;;;;;3.55;2.30;;;;;;;2.77;76.23;101507.00;10172901;29;20066;-71
2022/04/16 04:31:30;;;;;;;4.97;3.35;;;;;;;2.70;75.45;101518.13;10186812;29;20059;-71
2022/04/16 04:36:31;;;;;;;4.38;3.10;;;;;;;2.69;75.76;101512.88;10216465;29;20066;-71
2022/04/16 04:41:33;;;;;;;5.85;3.65;;;;;;;2.81;76.01;101543.44;10227869;29;20046;-71
2022/04/16 04:46:34;;;;;;;6.55;5.80;;;;;;;2.82;74.77;101542.59;10227216;29;20048;-71
2022/04/16 04:51:40;;;;;;;7.53;6.88;;;;;;;2.64;74.67;101551.69;10226651;29;20036;-71
2022/04/16 04:56:42;;;;;;;7.18;6.57;;;;;;;2.54;74.69;101557.50;10227434;29;20474;-72
2022/04/16 05:01:43;;;;;;;6.75;6.22;;;;;;;2.42;73.70;101576.22;10228342;29;20051;-70
2022/04/16 05:06:45;;;;;;;5.95;5.35;;;;;;;2.41;72.53;101587.47;10210851;29;20048;-70
2022/04/16 05:11:47;;;;;;;4.45;4.13;;;;;;;2.53;70.63;101594.69;10227680;29;20043;-71
2022/04/16 05:16:49;;;;;;;4.03;3.42;;;;;;;2.56;70.02;101609.44;10228708;29;20081;-71
2022/04/16 05:21:50;;;;;;;3.08;2.75;;;;;;;2.45;69.32;101620.44;10228373;29;20052;-71
2022/04/16 05:26:52;;;;;;;5.32;2.88;;;;;;;2.56;68.75;101623.31;10226227;29;20059;-71
2022/04/16 05:31:53;;;;;;;3.15;2.40;;;;;;;2.55;68.81;101628.47;10227692;29;20052;-70
2022/04/16 05:36:55;;;;;;;3.30;2.45;;;;;;;2.49;69.30;101640.47;10227027;29;20058;-70
2022/04/16 05:41:56;;;;;;;6.15;3.30;;;;;;;2.40;69.64;101640.22;10227838;29;20048;-72
2022/04/16 05:46:58;;;;;;;6.90;3.03;;;;;;;2.27;70.16;101641.59;10227771;29;20043;-71
2022/04/16 05:52:00;;;;;;;3.78;3.15;;;;;;;2.28;71.32;101648.53;10222012;29;20542;-71
2022/04/16 05:57:02;;;;;;;3.20;3.00;;;;;;;2.43;71.06;101649.78;10221861;29;20103;-72
2022/04/16 06:02:04;;;;;;;3.22;2.92;;;;;;;2.56;69.70;101654.47;10221343;29;20051;-71
2022/04/16 06:07:06;;;;;;;3.38;3.08;;;;;;;2.52;70.39;101657.81;10220236;29;20082;-71
2022/04/16 06:12:09;;;;;;;3.30;2.20;;;;;;;2.61;66.96;101665.88;10220683;29;20071;-70
2022/04/16 06:17:10;;;;;;;3.15;2.60;;;;;;;2.64;67.47;101662.47;10221782;29;20058;-71
2022/04/16 06:22:12;;;;;;;3.28;2.65;;;;;;;2.76;67.02;101666.25;10220464;29;20080;-72
2022/04/16 06:27:13;;;;;;;3.75;3.38;;;;;;;2.73;68.62;101670.50;10219569;29;20063;-71
2022/04/16 06:32:15;;;;;;;4.13;3.33;;;;;;;2.63;68.97;101674.56;10220305;29;20039;-70
2022/04/16 06:37:17;;;;;;;4.70;4.18;;;;;;;2.75;69.47;101674.91;10220633;29;20131;-71
2022/04/16 06:42:18;;;;;;;5.47;4.00;;;;;;;2.77;69.00;101680.13;10220157;29;20478;-71
2022/04/16 06:47:20;;;;;;;3.58;2.67;;;;;;;3.14;68.02;101668.06;10220157;29;20052;-71
2022/04/16 06:52:21;;;;;;;3.00;1.70;;;;;;;3.24;65.39;101680.47;10220174;29;20047;-71
2022/04/16 06:57:27;;;;;;;2.97;1.90;;;;;;;3.16;64.86;101684.59;10218621;29;20111;-71
2022/04/16 07:02:36;;;;;;;3.22;2.13;;;;;;;3.37;64.63;101699.84;10218469;29;20051;-71
2022/04/16 07:07:39;;;;;;;3.35;1.98;;;;;;;3.46;65.58;101697.44;10219188;29;20087;-70
2022/04/16 07:12:41;;;;;;;2.88;2.05;;;;;;;3.43;65.71;101703.44;10218333;29;20071;-70
2022/04/16 07:17:45;;;;;;;2.47;2.00;;;;;;;3.46;64.93;101700.06;10216512;29;20040;-70
2022/04/16 07:22:46;;;;;;;2.42;2.00;;;;;;;3.42;65.26;101703.41;10217083;29;20073;-72
2022/04/16 07:27:48;;;;;;;2.53;2.15;;;;;;;3.47;66.00;101700.06;10216712;29;20445;-70
2022/04/16 07:32:51;;;;;;;3.05;1.50;;;;;;;3.82;64.38;101697.41;10217196;23;20044;-72
2022/04/16 07:37:57;;;;;;;3.22;1.77;;;;;;;3.89;64.89;101693.22;10176949;29;20490;-72
2022/04/16 07:42:58;;;;;;;4.38;1.70;;;;;;;4.29;64.10;101694.94;10176632;29;20104;-71
2022/04/16 07:48:00;;;;;;;3.08;1.80;;;;;;;4.17;63.69;101699.91;10216180;29;20482;-71
2022/04/16 07:53:02;;;;;;;1.33;1.10;;;;;;;4.16;64.17;101700.72;10215898;29;20054;-70
2022/04/16 07:58:03;;;;;;;7.20;1.55;;;;;;;4.53;63.71;101703.25;10214713;29;20058;-71
2022/04/16 08:03:06;;;;;;;2.05;1.50;;;;;;;5.10;63.17;101716.47;10233256;29;20409;-70
2022/04/16 08:08:10;;;;;;;3.47;1.40;;;;;;;5.23;59.33;101713.22;10254706;29;20078;-70
2022/04/16 08:13:11;;;;;;;2.78;0.90;;;;;;;5.23;60.86;101715.81;10212278;29;20055;-71
2022/04/16 08:18:13;;;;;;;1.92;1.13;;;;;;;5.79;59.86;101721.91;10215152;29;20044;-71
2022/04/16 08:23:15;;;;;;;1.30;0.90;;;;;;;6.09;57.69;101728.47;10214275;29;20107;-71
2022/04/16 08:28:16;;;;;;;3.63;0.95;;;;;;;5.75;57.07;101740.97;10231117;29;20047;-72
2022/04/16 08:33:18;;;;;;;2.28;1.48;;;;;;;5.84;56.97;101735.03;10218185;29;20063;-71
2022/04/16 08:38:20;;;;;;;4.60;1.27;;;;;;;6.31;57.32;101734.84;10197935;29;20513;-71
2022/04/16 08:43:22;;;;;;;2.22;1.08;;;;;;;7.08;55.47;101734.88;10223574;29;20058;-73
2022/04/16 08:48:24;;;;;;;2.13;1.33;;;;;;;6.78;54.89;101739.78;10232662;29;20098;-70
2022/04/16 08:53:26;;;;;;;2.00;1.30;;;;;;;6.61;55.68;101746.53;10252970;29;20046;-72
2022/04/16 08:58:30;;;;;;;2.50;1.27;;;;;;;5.92;59.24;101753.44;10222290;29;20055;-71
2022/04/16 09:03:34;;;;;;;2.45;1.27;;;;;;;5.68;60.53;101746.97;10213040;29;20123;-71
2022/04/16 09:08:36;;;;;;;3.03;1.40;;;;;;;6.14;59.10;101746.81;10213181;29;20095;-70
2022/04/16 09:13:54;;;;;;;2.33;1.20;;;;;;;6.31;57.69;101755.75;10229054;29;20047;-71
2022/04/16 09:18:55;;;;;;;1.27;0.90;;;;;;;7.16;55.32;101744.50;10235816;29;20051;-71
2022/04/16 09:23:59;;;;;;;2.30;0.90;;;;;;;6.77;54.50;101753.69;10255678;28;20050;-71
2022/04/16 09:29:14;;;;;;;2.30;0.95;;;;;;;7.51;54.47;101743.06;10262478;29;20468;-72
2022/04/16 09:34:20;;;;;;;1.88;0.93;;;;;;;7.86;52.61;101737.22;10260636;29;20043;-72
2022/04/16 09:39:22;;;;;;;1.58;0.63;;;;;;;8.34;50.79;101743.63;10243877;29;20047;-71
2022/04/16 09:44:28;;;;;;;2.35;0.80;;;;;;;8.43;49.19;101745.44;10259998;29;20090;-72
2022/04/16 09:49:32;;;;;;;1.65;0.77;;;;;;;9.13;48.71;101747.41;10230269;29;20069;-72
2022/04/16 09:54:34;;;;;;;1.42;0.70;;;;;;;8.76;46.76;101740.28;10219272;29;20043;-71
2022/04/16 09:59:53;;;;;;;0.85;0.60;;;;;;;8.65;47.95;101742.03;10221573;29;20048;-72
2022/04/16 10:05:41;;;;;;;2.10;0.80;;;;;;;9.06;48.22;101742.13;10167452;29;20055;-72
2022/04/16 10:11:08;;;;;;;1.83;0.80;;;;;;;8.49;49.50;101751.56;10199181;29;20052;-72
2022/04/16 10:16:40;;;;;;;1.52;0.90;;;;;;;9.03;48.63;101741.22;10179988;29;20044;-71
2022/04/16 10:21:42;;;;;;;1.35;0.77;;;;;;;8.79;49.38;101752.56;10185265;29;20036;-71
2022/04/16 10:26:44;;;;;;;1.08;0.77;;;;;;;9.04;49.79;101737.75;10179270;29;20044;-71
2022/04/16 10:31:49;;;;;;;1.45;1.00;;;;;;;9.80;48.17;101729.88;10178683;29;20123;-71
2022/04/16 10:36:55;;;;;;;0.98;0.60;;;;;;;9.41;45.64;101736.03;10180676;29;20044;-70
2022/04/16 10:41:57;;;;;;;1.38;0.70;;;;;;;9.95;45.69;101731.59;10176824;29;20040;-71
2022/04/16 10:47:04;;;;;;;1.30;0.70;;;;;;;10.66;43.61;101727.00;10178933;29;20543;-71
2022/04/16 10:52:06;;;;;;;1.17;0.73;;;;;;;11.03;43.87;101732.06;10179006;29;20040;-71
2022/04/16 10:57:11;;;;;;;2.72;0.90;;;;;;;11.27;42.39;101731.88;10178569;29;20048;-71
2022/04/16 11:02:23;;;;;;;2.42;0.85;;;;;;;10.98;43.53;101740.00;10179474;29;20206;-71
2022/04/16 11:07:26;;;;;;;1.05;0.90;;;;;;;10.88;45.60;101726.88;10178839;29;20050;-72
2022/04/16 11:12:29;;;;;;;2.45;0.90;;;;;;;11.41;42.24;101729.13;10176756;29;20052;-71
2022/04/16 11:17:31;;;;;;;1.80;0.88;;;;;;;11.63;42.81;101735.97;10177482;29;20055;-72
2022/04/16 11:22:33;;;;;;;1.27;1.00;;;;;;;11.76;42.55;101726.19;10177377;29;20055;-73
2022/04/16 11:38:31;;;;;;;2.08;1.00;;;;;;;11.83;42.14;101729.69;10177612;29;20124;-71
2022/04/16 11:43:33;;;;;;;1.33;0.85;;;;;;;11.63;41.98;101719.28;10177168;29;20100;-71
2022/04/16 11:48:35;;;;;;;1.15;0.80;;;;;;;12.04;42.70;101718.03;10176567;29;20052;-71
2022/04/16 11:53:44;;;;;;;3.13;1.70;;;;;;;11.73;41.95;101726.22;10176299;29;20525;-71
2022/04/16 11:58:49;;;;;;;1.77;0.70;;;;;;;11.68;42.78;101719.25;10177005;29;20052;-71
2022/04/16 12:03:56;;;;;;;1.23;0.80;;;;;;;11.65;42.03;101714.91;10177980;29;20454;-72
2022/04/16 12:09:01;;;;;;;1.70;0.80;;;;;;;11.82;41.36;101725.25;10174667;29;20055;-71
2022/04/16 12:14:03;;;;;;;1.42;0.60;;;;;;;11.77;39.34;101712.13;10175962;29;20076;-71
2022/04/16 12:19:04;;;;;;;1.10;0.68;;;;;;;11.70;41.87;101715.72;10175508;29;20052;-71
2022/04/16 12:24:06;;;;;;;1.85;0.93;;;;;;;11.61;40.59;101710.53;10174970;29;20040;-71
2022/04/16 12:29:10;;;;;;;2.28;0.80;;;;;;;11.95;42.34;101708.44;10175765;29;20052;-70
2022/04/16 12:34:12;;;;;;;5.10;1.08;;;;;;;11.48;41.61;101698.38;10174649;29;20044;-70
2022/04/16 12:39:13;;;;;;;1.63;0.75;;;;;;;11.21;40.78;101712.63;10174540;29;20052;-70
2022/04/16 12:44:15;;;;;;;0.95;0.60;;;;;;;11.14;41.28;101713.56;10174431;29;20517;-70
2022/04/16 12:49:19;;;;;;;1.35;0.55;;;;;;;11.23;41.76;101689.78;10175217;29;20491;-70
2022/04/16 12:54:20;;;;;;;1.95;0.60;;;;;;;11.25;41.54;101702.06;10174411;29;20048;-71
2022/04/16 12:59:22;;;;;;;1.75;0.70;;;;;;;11.37;38.68;101701.06;10175162;29;20052;-70
2022/04/16 13:04:23;;;;;;;0.93;0.47;;;;;;;11.20;40.63;101693.34;10182088;29;20108;-71
2022/04/16 13:09:25;;;;;;;1.40;0.70;;;;;;;11.07;41.87;101684.66;10181496;29;20052;-70
2022/04/16 13:14:27;;;;;;;0.98;0.70;;;;;;;11.48;41.70;101691.34;10180298;29;20547;-72
2022/04/16 13:19:29;;;;;;;0.85;0.55;;;;;;;11.40;40.59;101681.75;10182060;29;20418;-71
2022/04/16 13:24:30;;;;;;;1.73;0.77;;;;;;;11.49;40.72;101685.19;10181803;29;20055;-72
2022/04/16 13:29:33;;;;;;;2.70;0.50;;;;;;;11.49;39.48;101674.66;10181049;29;20055;-71
2022/04/16 13:34:40;;;;;;;3.55;0.80;;;;;;;11.17;40.86;101672.31;10208571;23;20046;-81
2022/04/16 13:45:02;;;;;;;1.70;0.80;;;;;;;11.05;40.93;101670.63;10249842;29;20040;-82
2022/04/16 13:50:04;;;;;;;2.50;0.90;;;;;;;11.17;41.18;101660.91;10254485;29;20047;-80
2022/04/16 13:55:08;;;;;;;2.08;0.85;;;;;;;10.99;38.52;101656.66;10255754;29;20044;-82
2022/04/16 14:00:10;;;;;;;0.85;0.50;;;;;;;11.13;39.47;101653.91;10254168;29;20071;-79
2022/04/16 14:10:32;;;;;;;1.08;0.50;;;;;;;10.83;40.13;101655.88;10235824;29;20067;-82
2022/04/16 14:15:35;;;;;;;1.38;0.60;;;;;;;10.91;40.35;101654.06;10238525;29;20130;-81
2022/04/16 14:20:37;;;;;;;1.75;0.57;;;;;;;10.77;40.35;101645.41;10254670;29;20058;-81
2022/04/16 14:25:38;;;;;;;0.85;0.50;;;;;;;10.66;37.38;101642.84;10245488;29;20043;-81
2022/04/16 14:30:40;;;;;;;1.08;0.52;;;;;;;10.96;37.51;101646.16;10248730;29;20059;-82
2022/04/16 14:35:42;;;;;;;1.65;0.55;;;;;;;10.90;36.50;101647.06;10246038;29;20043;-83
2022/04/16 14:40:44;;;;;;;1.58;0.73;;;;;;;10.76;38.09;101648.94;10250230;29;20072;-80
2022/04/16 14:45:45;;;;;;;0.90;0.55;;;;;;;10.98;39.29;101657.50;10260223;29;20099;-80
2022/04/16 14:50:47;;;;;;;2.53;0.90;;;;;;;10.84;38.70;101647.09;10255474;29;20048;-82
2022/04/16 14:55:49;;;;;;;1.40;0.50;;;;;;;10.91;39.94;101635.66;10234361;29;20071;-80
2022/04/16 15:00:50;;;;;;;2.75;0.70;;;;;;;10.92;39.69;101640.03;10235640;29;20060;-82
2022/04/16 15:05:52;;;;;;;1.55;0.50;;;;;;;10.74;39.53;101632.28;10234320;29;20052;-81
2022/04/16 15:10:53;;;;;;;1.25;0.70;;;;;;;10.75;39.42;101627.00;10233763;29;20084;-80
2022/04/16 15:15:55;;;;;;;1.95;0.60;;;;;;;11.03;39.41;101632.06;10234550;29;20048;-81
2022/04/16 15:20:57;;;;;;;2.10;1.13;;;;;;;10.68;39.72;101613.91;10232132;29;20058;-80
2022/04/16 15:25:59;;;;;;;1.63;0.77;;;;;;;10.83;38.64;101621.69;10236045;29;20047;-82
2022/04/16 15:31:19;;;;;;;1.48;0.50;;;;;;;10.74;39.57;101619.13;10231241;29;20139;-81
2022/04/16 15:36:20;;;;;;;1.23;0.80;;;;;;;10.59;39.37;101617.47;10234475;29;20056;-81
2022/04/16 15:41:22;;;;;;;1.50;0.60;;;;;;;10.79;38.25;101609.44;10234328;29;20055;-81
2022/04/16 15:46:23;;;;;;;1.88;0.65;;;;;;;10.82;38.46;101612.06;10239677;29;20043;-82
2022/04/16 15:51:26;;;;;;;1.55;0.43;;;;;;;10.77;37.74;101604.19;10241280;29;20048;-83
2022/04/16 15:56:27;;;;;;;2.55;1.23;;;;;;;10.79;38.95;101601.53;10242877;29;20055;-80
2022/04/16 16:01:29;;;;;;;1.42;0.65;;;;;;;10.85;38.35;101607.66;10239544;29;20050;-80
2022/04/16 16:06:31;;;;;;;1.33;0.50;;;;;;;10.61;37.91;101602.56;10241181;29;20064;-82
2022/04/16 16:11:33;;;;;;;1.08;0.55;;;;;;;10.56;38.25;101597.31;10239190;29;20490;-81
2022/04/16 16:16:34;;;;;;;1.60;0.75;;;;;;;10.69;38.08;101597.25;10252534;29;20083;-79
2022/04/16 16:21:36;;;;;;;1.48;1.20;;;;;;;10.59;37.25;101593.81;10259200;29;20048;-82
2022/04/16 16:26:38;;;;;;;0.90;0.50;;;;;;;10.69;37.40;101589.34;10260356;29;20056;-81
2022/04/16 16:31:39;;;;;;;1.25;0.55;;;;;;;10.60;37.93;101595.56;10244407;29;20035;-80
2022/04/16 16:36:41;;;;;;;1.15;0.47;;;;;;;10.57;38.04;101596.44;10232970;29;20051;-82
2022/04/16 16:41:43;;;;;;;1.42;0.80;;;;;;;10.68;38.21;101590.25;10235467;29;20063;-79
2022/04/16 16:46:46;;;;;;;1.00;0.60;;;;;;;10.59;39.29;101596.44;10247667;29;20086;-80
2022/04/16 16:51:51;;;;;;;2.78;1.23;;;;;;;10.54;39.09;101579.84;10246130;29;20038;-80
2022/04/16 16:56:53;;;;;;;1.63;0.73;;;;;;;10.25;39.91;101580.00;10235792;29;20044;-82
2022/04/16 17:01:54;;;;;;;1.63;0.82;;;;;;;10.29;39.50;101573.84;10234681;29;20051;-82
2022/04/16 17:12:16;;;;;;;2.78;1.40;;;;;;;10.30;39.70;101580.84;10237778;29;20116;-81
2022/04/16 17:22:38;;;;;;;1.98;1.20;;;;;;;10.06;40.14;101580.06;10233595;29;20047;-82
2022/04/16 17:27:41;;;;;;;1.30;0.80;;;;;;;9.99;40.25;101577.47;10231599;29;20052;-81
2022/04/16 17:32:43;;;;;;;1.48;0.80;;;;;;;9.84;41.00;101584.56;10231329;29;20044;-80
2022/04/16 17:37:47;;;;;;;1.50;0.60;;;;;;;9.67;40.37;101593.38;10230945;29;20059;-83
2022/04/16 17:42:49;;;;;;;2.22;1.15;;;;;;;9.71;40.80;101600.38;10228964;29;20095;-81
2022/04/16 17:47:51;;;;;;;4.40;1.17;;;;;;;9.58;40.57;101613.50;10233078;29;20418;-80
2022/04/16 17:52:52;;;;;;;3.15;1.60;;;;;;;9.53;40.86;101614.41;10235356;29;20081;-83
2022/04/16 17:57:54;;;;;;;2.50;1.90;;;;;;;9.21;41.76;101620.59;10237835;29;20062;-82
2022/04/16 18:02:55;;;;;;;3.08;1.60;;;;;;;9.12;42.57;101614.44;10225170;29;20093;-82
2022/04/16 18:07:57;;;;;;;1.60;1.45;;;;;;;9.08;42.68;101614.47;10244904;29;20040;-82
2022/04/16 18:12:58;;;;;;;2.50;2.15;;;;;;;8.93;43.13;101613.59;10228841;29;20426;-83
2022/04/16 18:18:00;;;;;;;6.20;5.43;;;;;;;8.82;43.73;101621.47;10241822;29;20079;-82
2022/04/16 18:23:02;;;;;;;7.05;6.28;;;;;;;8.73;43.79;101629.31;10240210;29;20047;-82
2022/04/16 18:28:04;;;;;;;4.03;3.10;;;;;;;8.63;44.57;101628.41;10234256;29;20146;-82
2022/04/16 18:33:05;;;;;;;4.63;3.40;;;;;;;8.62;44.85;101638.91;10236108;29;20055;-82
2022/04/16 18:38:07;;;;;;;3.20;2.60;;;;;;;8.58;45.22;101645.88;10234825;29;20048;-81
2022/04/16 18:43:08;;;;;;;7.30;5.75;;;;;;;8.39;48.40;101639.72;10231259;29;20048;-81
2022/04/16 18:48:10;;;;;;;6.03;3.92;;;;;;;8.31;49.52;101641.41;10217297;29;20048;-82
2022/04/16 18:53:13;;;;;;;3.08;2.78;;;;;;;8.15;49.76;101645.75;10233112;29;20047;-82
2022/04/16 18:58:17;;;;;;;4.03;3.17;;;;;;;7.86;52.20;101647.34;10231656;29;20043;-81
2022/04/16 19:08:40;;;;;;;4.60;3.78;;;;;;;7.42;54.57;101655.78;10233724;29;20075;-82
2022/04/16 19:13:43;;;;;;;6.30;4.85;;;;;;;7.35;54.84;101662.72;10231817;29;20454;-83
2022/04/16 19:18:44;;;;;;;5.88;3.72;;;;;;;7.10;55.43;101656.41;10214314;29;20058;-82
2022/04/16 19:23:46;;;;;;;4.20;3.75;;;;;;;6.82;55.29;101652.69;10236274;29;20044;-81
2022/04/16 19:28:47;;;;;;;5.30;4.80;;;;;;;7.10;55.68;101658.16;10249546;29;20048;-81
2022/04/16 19:33:49;;;;;;;7.03;6.22;;;;;;;7.22;54.40;101666.13;10232204;29;20039;-82
2022/04/16 19:38:50;;;;;;;12.95;6.97;;;;;;;7.08;54.70;101659.03;10227683;29;20501;-82
2022/04/16 19:43:52;;;;;;;8.45;7.25;;;;;;;7.09;53.59;101665.13;10227686;29;20043;-81
2022/04/16 19:48:55;;;;;;;9.63;8.68;;;;;;;7.14;53.85;101670.41;10229608;29;20111;-82
2022/04/16 19:53:56;;;;;;;9.05;8.15;;;;;;;6.87;54.92;101661.44;10243020;29;20048;-82
2022/04/16 19:58:58;;;;;;;9.82;8.95;;;;;;;6.68;56.84;101662.13;10241241;29;20051;-81
2022/04/16 20:04:06;;;;;;;9.25;8.38;;;;;;;6.76;56.24;101655.22;10242562;29;20054;-81
2022/04/16 20:14:28;;;;;;;9.68;7.22;;;;;;;6.57;57.35;101659.41;10240641;29;20052;-81
2022/04/16 20:19:29;;;;;;;11.60;6.35;;;;;;;6.23;58.44;101663.34;10226603;29;20055;-81
2022/04/16 20:24:31;;;;;;;8.32;6.75;;;;;;;6.34;58.40;101653.94;10226981;29;20561;-81
2022/04/16 20:29:33;;;;;;;8.65;5.93;;;;;;;6.41;59.39;101647.03;10227513;29;20075;-81
2022/04/16 20:34:36;;;;;;;7.00;6.30;;;;;;;6.31;58.08;101652.16;10225504;29;20134;-79
2022/04/16 20:50:19;;;;;;;7.80;6.30;;;;;;;5.88;60.76;101655.91;10226372;29;20054;-81
2022/04/16 20:55:20;;;;;;;7.30;6.00;;;;;;;5.49;61.97;101653.63;10228103;29;20039;-81
2022/04/16 21:00:30;;;;;;;6.65;5.90;;;;;;;5.57;62.73;101652.88;10222760;29;20044;-81
2022/04/16 21:05:31;;;;;;;7.13;6.43;;;;;;;5.52;62.49;101656.28;10224536;29;20079;-81
2022/04/16 21:10:34;;;;;;;7.80;6.07;;;;;;;5.29;63.94;101654.22;10210623;29;20107;-81
2022/04/16 21:15:35;;;;;;;8.32;7.45;;;;;;;5.42;63.73;101655.28;10221461;29;20152;-81
2022/04/16 21:20:38;;;;;;;8.25;6.50;;;;;;;5.54;63.92;101659.81;10224463;29;20561;-82
2022/04/16 21:25:39;;;;;;;6.90;5.97;;;;;;;5.20;63.62;101656.66;10231965;29;20099;-81
2022/04/16 21:30:41;;;;;;;9.20;5.85;;;;;;;5.50;63.33;101668.44;10241271;29;20042;-80
2022/04/16 21:35:42;;;;;;;6.40;5.75;;;;;;;5.16;64.23;101667.91;10240202;29;20050;-81
2022/04/16 21:40:44;;;;;;;7.68;5.55;;;;;;;5.28;62.98;101667.22;10234855;29;20052;-80
2022/04/16 21:45:46;;;;;;;7.32;5.43;;;;;;;5.53;60.57;101665.84;10227780;28;20070;-80
2022/04/16 21:50:49;;;;;;;6.88;5.95;;;;;;;5.41;60.80;101670.91;10245217;29;20584;-80
2022/04/16 21:55:50;;;;;;;5.18;4.70;;;;;;;5.39;60.49;101670.88;10244528;29;20059;-80
2022/04/16 22:01:04;;;;;;;6.72;5.53;;;;;;;5.31;61.96;101669.88;10247525;29;20072;-81
2022/04/16 22:06:05;;;;;;;7.00;5.70;;;;;;;5.27;62.67;101660.25;10257707;29;20047;-81
2022/04/16 22:11:07;;;;;;;7.22;5.70;;;;;;;5.25;62.38;101682.81;10258144;29;20107;-81
2022/04/16 22:16:09;;;;;;;6.82;5.97;;;;;;;5.47;60.15;101677.09;10259331;29;20047;-80
2022/04/16 22:21:11;;;;;;;6.35;5.28;;;;;;;5.50;60.57;101674.53;10249079;29;20047;-79
2022/04/16 22:26:15;;;;;;;6.10;5.50;;;;;;;5.19;62.93;101675.78;10250460;29;20053;-81
2022/04/16 22:31:18;;;;;;;6.22;5.63;;;;;;;4.99;62.20;101680.63;10242773;29;20052;-80
2022/04/16 22:36:20;;;;;;;6.57;5.47;;;;;;;4.92;62.46;101673.59;10223138;29;20071;-80
2022/04/16 22:41:21;;;;;;;6.60;5.82;;;;;;;4.96;63.96;101679.72;10245078;29;20043;-80
2022/04/16 22:46:23;;;;;;;6.45;5.85;;;;;;;4.70;64.18;101687.06;10240493;29;20099;-80
2022/04/16 22:51:25;;;;;;;6.70;6.05;;;;;;;4.94;62.02;101663.19;10243287;29;20086;-80
2022/04/16 22:56:27;;;;;;;7.18;6.30;;;;;;;4.91;61.18;101677.00;10251621;29;20035;-80
2022/04/16 23:01:28;;;;;;;6.30;5.70;;;;;;;4.83;61.37;101678.63;10263515;29;20051;-81
2022/04/16 23:06:30;;;;;;;7.45;6.50;;;;;;;4.81;62.16;101678.59;10260722;29;20528;-81
2022/04/16 23:11:32;;;;;;;6.97;5.47;;;;;;;4.85;60.84;101676.91;10242318;29;20052;-80
2022/04/16 23:16:37;;;;;;;6.43;5.68;;;;;;;4.63;63.11;101674.78;10234743;29;20047;-80
2022/04/16 23:21:39;;;;;;;6.07;5.47;;;;;;;4.57;63.21;101661.66;10237587;29;20126;-80
2022/04/16 23:26:41;;;;;;;7.00;5.53;;;;;;;4.35;63.30;101668.16;10242230;29;20078;-80
2022/04/16 23:31:42;;;;;;;7.30;6.20;;;;;;;4.39;62.15;101670.00;10245442;29;20095;-80
2022/04/16 23:36:44;;;;;;;6.85;6.15;;;;;;;4.08;64.13;101663.28;10237466;29;20048;-80
2022/04/16 23:41:45;;;;;;;6.50;5.80;;;;;;;3.95;64.61;101657.81;10237783;29;20051;-80
2022/04/16 23:46:56;;;;;;;6.63;5.88;;;;;;;3.85;65.90;101667.97;10237530;29;20048;-81
2022/04/16 23:51:58;;;;;;;6.68;5.95;;;;;;;3.92;65.88;101668.16;10218841;29;20051;-80
2022/04/16 23:57:01;;;;;;;7.13;6.40;;;;;;;3.54;67.48;101668.19;10237113;29;20061;-80
